Hundvaag 1 weather for Jul 1991
Month no. 49
Obs.
Da.
Temp. Dew Point Precip. Wind
Speed
Wind gusts Cloud cover Press. Humidity Wind dir. Sunny OPT
01.07.1991 12,6   0,0             1  
02.07.1991 14,7   0,0             1  
03.07.1991 16,3   0,0             1  
04.07.1991 18,4   0,0             1  
05.07.1991 18,6   0,0             1  
06.07.1991 18,9   0,0             1  
07.07.1991 18,2   0,0             1  
08.07.1991 19,1   0,0             1  
09.07.1991 18,3   0,8                
10.07.1991 13,9   13,9             1  
11.07.1991 14,3   0,4                
12.07.1991 19,0   0,0             1  
13.07.1991 17,3   2,0                
14.07.1991 13,6   19,0                
15.07.1991 13,9   1,1                
16.07.1991 13,6   1,1                
17.07.1991 12,2   5,8                
18.07.1991 13,8   0,7             1  
19.07.1991 14,0   0,0                
20.07.1991 14,3   2,5                
21.07.1991 15,0   1,1                
22.07.1991 12,7   0,0                
23.07.1991 12,7   0,0             1  
24.07.1991 14,8   0,0                
25.07.1991 17,0   0,0             1  
26.07.1991 13,8   0,0                
27.07.1991 17,2   0,0                
28.07.1991 16,8   0,3             1  
29.07.1991 15,6   0,0             1  
30.07.1991 15,0   0,0             1  
31.07.1991 19,7   0,0             1  
Avrg/Sum 15,7   48,7             17